createdAt,value
2022-09-26T00:01:10.122Z,45.97
2022-09-26T00:02:42.919Z,44.30
2022-09-26T00:04:30.402Z,47.33
2022-09-26T00:06:08.406Z,46.37
2022-09-26T00:07:40.595Z,48.20
2022-09-26T00:09:15.676Z,46.70
2022-09-26T00:10:58.248Z,45.80
2022-09-26T00:12:30.771Z,44.23
2022-09-26T00:14:10.591Z,47.10
2022-09-26T00:15:42.747Z,49.73
2022-09-26T00:17:15.133Z,47.30
2022-09-26T00:18:52.515Z,47.37
2022-09-26T00:20:24.703Z,45.57
2022-09-26T00:21:56.926Z,46.80
2022-09-26T00:23:29.257Z,46.37
2022-09-26T00:25:01.623Z,46.60
2022-09-26T00:26:36.336Z,44.30
2022-09-26T00:28:08.796Z,47.47
2022-09-26T00:29:41.165Z,46.97
2022-09-26T00:31:18.937Z,47.63
2022-09-26T00:32:51.156Z,46.10
2022-09-26T00:34:23.289Z,45.13
2022-09-26T00:35:56.248Z,46.40
2022-09-26T00:37:28.624Z,45.20
2022-09-26T00:39:01.288Z,45.83
2022-09-26T00:40:33.615Z,46.80
2022-09-26T00:42:05.871Z,47.67
2022-09-26T00:43:45.805Z,46.67
2022-09-26T00:45:18.712Z,47.27
2022-09-26T00:46:51.564Z,44.67
2022-09-26T00:48:25.019Z,43.93
2022-09-26T00:50:32.083Z,44.63
2022-09-26T00:52:25.815Z,45.43
2022-09-26T00:53:59.299Z,43.43
2022-09-26T00:55:37.656Z,43.67
2022-09-26T00:57:18.432Z,42.57
2022-09-26T00:59:16.138Z,44.83
2022-09-26T01:00:50.356Z,45.50
2022-09-26T01:02:26.039Z,45.03
2022-09-26T01:03:59.818Z,46.67
2022-09-26T01:05:34.254Z,44.13
2022-09-26T01:07:17.430Z,45.20
2022-09-26T01:08:58.961Z,44.17
2022-09-26T01:10:32.522Z,44.23
2022-09-26T01:12:08.631Z,44.13
2022-09-26T01:13:43.260Z,44.90
2022-09-26T01:15:15.508Z,43.67
2022-09-26T01:16:53.948Z,44.77
2022-09-26T01:18:27.499Z,45.03
2022-09-26T01:20:29.620Z,47.07
2022-09-26T01:22:53.877Z,42.57
2022-09-26T01:25:01.834Z,46.03
2022-09-26T01:27:38.399Z,45.53
2022-09-26T01:30:06.883Z,44.80
2022-09-26T01:32:25.937Z,44.90
2022-09-26T01:34:24.497Z,45.87
2022-09-26T01:36:08.660Z,46.50
2022-09-26T01:38:08.844Z,45.53
2022-09-26T01:39:58.568Z,45.20
2022-09-26T01:42:02.327Z,44.73
2022-09-26T01:43:45.840Z,45.57
2022-09-26T01:45:50.364Z,48.57
2022-09-26T01:47:42.345Z,50.90
2022-09-26T01:49:40.542Z,49.60
2022-09-26T01:51:38.050Z,49.67
2022-09-26T01:53:19.028Z,51.87
2022-09-26T01:55:10.267Z,52.97
2022-09-26T01:56:46.704Z,54.30
2022-09-26T01:58:30.873Z,51.13
2022-09-26T02:00:12.558Z,46.63
2022-09-26T02:01:50.387Z,51.23
2022-09-26T02:03:30.345Z,52.17
2022-09-26T02:05:22.891Z,52.33
2022-09-26T02:07:31.398Z,57.70
2022-09-26T02:09:24.915Z,55.27
2022-09-26T02:11:13.274Z,57.30
2022-09-26T02:12:55.146Z,50.40
2022-09-26T02:14:36.431Z,57.83
2022-09-26T02:16:18.529Z,53.97
2022-09-26T02:18:13.819Z,57.30
2022-09-26T02:20:01.828Z,57.27
2022-09-26T02:21:34.882Z,64.13
2022-09-26T02:23:08.896Z,57.37
2022-09-26T02:24:41.067Z,57.93
2022-09-26T02:26:13.680Z,58.53
2022-09-26T02:27:45.972Z,53.10
2022-09-26T02:29:20.204Z,57.93
2022-09-26T02:30:54.745Z,57.00
2022-09-26T02:32:32.976Z,54.50
2022-09-26T02:34:06.426Z,53.27
2022-09-26T02:35:54.231Z,55.50
2022-09-26T02:37:32.322Z,50.27
2022-09-26T02:39:04.730Z,53.13
2022-09-26T02:41:20.032Z,111.73
2022-09-26T02:43:30.966Z,57.00
2022-09-26T02:45:18.431Z,57.97
2022-09-26T02:47:25.220Z,67.37
2022-09-26T02:49:23.553Z,58.87
2022-09-26T02:51:44.531Z,57.30
2022-09-26T02:53:47.280Z,51.80
2022-09-26T02:55:26.933Z,53.30
2022-09-26T02:57:40.073Z,48.63
2022-09-26T02:59:53.771Z,56.07
2022-09-26T03:01:43.969Z,50.90
2022-09-26T03:03:45.611Z,49.33
2022-09-26T03:05:32.867Z,49.60
2022-09-26T03:07:12.663Z,50.30
2022-09-26T03:08:49.258Z,48.90
2022-09-26T03:10:21.647Z,50.13
2022-09-26T03:11:55.785Z,50.90
2022-09-26T03:13:36.394Z,50.00
2022-09-26T03:15:10.945Z,52.97
2022-09-26T03:16:45.449Z,54.17
2022-09-26T03:18:24.684Z,50.57
2022-09-26T03:20:05.350Z,50.60
2022-09-26T03:21:37.788Z,52.57
2022-09-26T03:23:10.224Z,52.20
2022-09-26T03:24:44.213Z,53.50
2022-09-26T03:26:24.706Z,53.57
2022-09-26T03:27:58.670Z,52.70
2022-09-26T03:29:32.923Z,53.70
2022-09-26T03:31:05.746Z,54.97
2022-09-26T03:32:38.257Z,54.97
2022-09-26T03:34:10.472Z,55.77
2022-09-26T03:35:42.663Z,53.67
2022-09-26T03:37:17.123Z,53.47
2022-09-26T03:38:49.841Z,57.37
2022-09-26T03:40:22.047Z,58.00
2022-09-26T03:41:55.436Z,57.90
2022-09-26T03:43:27.828Z,61.93
2022-09-26T03:45:01.915Z,50.90
2022-09-26T03:46:39.564Z,60.47
2022-09-26T03:48:12.247Z,59.17
2022-09-26T03:49:44.697Z,56.50
2022-09-26T03:51:18.042Z,56.73
2022-09-26T03:52:50.373Z,57.17
2022-09-26T03:54:22.567Z,62.03
2022-09-26T03:56:02.940Z,54.00
2022-09-26T03:57:35.401Z,53.67
2022-09-26T03:59:09.114Z,64.30
2022-09-26T04:00:41.489Z,57.57
2022-09-26T04:02:14.024Z,56.10
2022-09-26T04:03:50.897Z,63.70
2022-09-26T04:05:23.497Z,52.53
2022-09-26T04:06:55.705Z,54.73
2022-09-26T04:08:28.536Z,56.10
2022-09-26T04:10:01.046Z,51.90
2022-09-26T04:11:33.345Z,54.67
2022-09-26T04:13:05.508Z,52.47
2022-09-26T04:14:37.706Z,52.57
2022-09-26T04:16:10.811Z,53.33
2022-09-26T04:17:43.261Z,52.17
2022-09-26T04:19:15.826Z,49.90
2022-09-26T04:20:48.132Z,52.07
2022-09-26T04:22:20.605Z,40.27
2022-09-26T04:23:54.059Z,52.70
2022-09-26T04:25:26.189Z,53.40
2022-09-26T04:26:58.670Z,54.00
2022-09-26T04:28:32.073Z,48.60
2022-09-26T04:30:05.259Z,49.60
2022-09-26T04:31:38.013Z,47.13
2022-09-26T04:33:10.637Z,47.33
2022-09-26T04:34:43.047Z,51.60
2022-09-26T04:36:17.540Z,48.80
2022-09-26T04:37:50.867Z,48.13
2022-09-26T04:39:23.276Z,45.47
2022-09-26T04:40:55.694Z,54.13
2022-09-26T04:42:28.108Z,43.27
2022-09-26T04:44:01.945Z,46.20
2022-09-26T04:45:34.130Z,49.73
2022-09-26T04:47:06.595Z,42.33
2022-09-26T04:48:38.937Z,39.07
2022-09-26T04:50:11.128Z,41.13
2022-09-26T04:51:43.308Z,36.63
2022-09-26T04:53:18.044Z,35.53
2022-09-26T04:54:50.214Z,38.77
2022-09-26T04:56:26.027Z,42.77
2022-09-26T04:57:58.232Z,39.03
2022-09-26T04:59:30.839Z,40.37
2022-09-26T05:01:07.318Z,49.33
2022-09-26T05:02:40.319Z,42.13
2022-09-26T05:04:13.502Z,38.80
2022-09-26T05:05:50.444Z,51.37
2022-09-26T05:07:22.796Z,44.73
2022-09-26T05:08:55.126Z,38.03
2022-09-26T05:10:27.330Z,40.53
2022-09-26T05:11:59.966Z,38.17
2022-09-26T05:13:32.270Z,37.03
2022-09-26T05:15:09.957Z,37.83
2022-09-26T05:16:42.644Z,35.33
2022-09-26T05:18:15.157Z,38.50
2022-09-26T05:19:47.385Z,32.53
2022-09-26T05:21:20.307Z,32.53
2022-09-26T05:22:52.827Z,30.67
2022-09-26T05:24:43.771Z,31.60
2022-09-26T05:26:44.739Z,29.20
2022-09-26T05:28:17.139Z,28.07
2022-09-26T05:29:49.722Z,25.53
2022-09-26T05:31:26.317Z,26.97
2022-09-26T05:32:58.531Z,25.10
2022-09-26T05:34:31.131Z,24.07
2022-09-26T05:36:04.397Z,25.17
2022-09-26T05:37:36.672Z,23.53
2022-09-26T05:39:27.759Z,24.17
2022-09-26T05:41:00.862Z,26.37
2022-09-26T05:42:33.923Z,26.83
2022-09-26T05:44:06.125Z,28.87
2022-09-26T05:45:39.046Z,28.83
2022-09-26T05:47:11.709Z,29.00
2022-09-26T05:48:44.488Z,29.93
2022-09-26T05:50:16.951Z,29.27
2022-09-26T05:51:49.498Z,28.73
2022-09-26T05:53:22.120Z,28.10
2022-09-26T05:54:54.515Z,31.40
2022-09-26T05:56:26.643Z,29.53
2022-09-26T05:57:59.242Z,29.00
2022-09-26T05:59:31.455Z,28.03
2022-09-26T06:01:07.002Z,28.27
2022-09-26T06:02:39.276Z,30.43
2022-09-26T06:04:11.560Z,32.80
2022-09-26T06:05:43.919Z,31.10
2022-09-26T06:07:16.288Z,30.00
2022-09-26T06:08:49.280Z,32.97
2022-09-26T06:10:21.965Z,32.40
2022-09-26T06:11:54.159Z,33.10
2022-09-26T06:13:26.839Z,33.77
2022-09-26T06:14:59.046Z,32.57
2022-09-26T06:16:33.070Z,34.57
2022-09-26T06:18:05.682Z,35.27
2022-09-26T06:19:38.247Z,36.57
2022-09-26T06:21:13.446Z,36.57
2022-09-26T06:22:46.045Z,36.70
2022-09-26T06:24:19.335Z,35.50
2022-09-26T06:25:51.783Z,37.07
2022-09-26T06:27:25.439Z,37.60
2022-09-26T06:29:00.710Z,36.53
2022-09-26T06:30:34.276Z,35.97
2022-09-26T06:32:06.778Z,38.13
2022-09-26T06:33:39.135Z,40.13
2022-09-26T06:35:12.277Z,41.30
2022-09-26T06:36:45.545Z,40.30
2022-09-26T06:38:18.009Z,38.43
2022-09-26T06:39:50.616Z,40.20
2022-09-26T06:41:24.695Z,39.37
2022-09-26T06:42:56.919Z,37.33
2022-09-26T06:44:29.276Z,41.00
2022-09-26T06:46:02.384Z,38.90
2022-09-26T06:47:35.851Z,37.53
2022-09-26T06:49:08.068Z,36.80
2022-09-26T06:50:40.834Z,41.40
2022-09-26T06:52:14.176Z,36.80
2022-09-26T06:53:46.871Z,39.07
2022-09-26T06:55:19.180Z,39.97
2022-09-26T06:56:51.709Z,37.23
2022-09-26T06:58:23.963Z,43.20
2022-09-26T06:59:57.137Z,42.43
2022-09-26T07:01:29.473Z,42.17
2022-09-26T07:03:02.775Z,42.13
2022-09-26T07:04:36.016Z,41.60
2022-09-26T07:06:08.481Z,40.83
2022-09-26T07:07:43.111Z,40.13
2022-09-26T07:09:16.734Z,40.17
2022-09-26T07:10:49.403Z,39.83
2022-09-26T07:12:24.916Z,38.30
2022-09-26T07:14:00.022Z,39.43
2022-09-26T07:15:35.326Z,38.17
2022-09-26T07:17:07.881Z,40.70
2022-09-26T07:18:40.449Z,43.57
2022-09-26T07:20:17.003Z,38.97
2022-09-26T07:21:49.640Z,41.23
2022-09-26T07:23:22.696Z,41.27
2022-09-26T07:24:54.932Z,38.53
2022-09-26T07:26:27.145Z,33.67
2022-09-26T07:28:00.921Z,36.83
2022-09-26T07:29:33.159Z,36.93
2022-09-26T07:31:05.872Z,36.07
2022-09-26T07:32:38.155Z,33.23
2022-09-26T07:34:15.851Z,36.20
2022-09-26T07:35:50.232Z,36.40
2022-09-26T07:37:22.936Z,39.03
2022-09-26T07:38:55.185Z,39.83
2022-09-26T07:40:28.048Z,37.93
2022-09-26T07:42:03.082Z,38.40
2022-09-26T07:44:21.729Z,40.93
2022-09-26T07:45:51.822Z,40.27
2022-09-26T07:47:42.948Z,39.80
2022-09-26T07:49:33.789Z,44.53
2022-09-26T07:51:09.235Z,41.20
2022-09-26T07:52:45.430Z,41.97
2022-09-26T07:54:18.045Z,37.47
2022-09-26T07:56:08.799Z,39.67
2022-09-26T07:57:41.705Z,43.97
2022-09-26T07:59:14.327Z,43.87
2022-09-26T08:00:46.659Z,46.00
2022-09-26T08:02:23.794Z,46.17
2022-09-26T08:03:58.291Z,48.43
2022-09-26T08:05:32.361Z,43.70
2022-09-26T08:07:04.719Z,46.07
2022-09-26T08:08:37.456Z,49.97
2022-09-26T08:10:21.186Z,46.40
2022-09-26T08:11:53.887Z,49.57
2022-09-26T08:13:29.052Z,46.57
2022-09-26T08:15:01.519Z,48.57
2022-09-26T08:16:34.090Z,46.60
2022-09-26T08:18:06.544Z,49.00
2022-09-26T08:19:38.731Z,49.20
2022-09-26T08:21:11.249Z,52.17
2022-09-26T08:22:43.587Z,50.83
2022-09-26T08:24:16.740Z,52.00
2022-09-26T08:25:48.980Z,48.10
2022-09-26T08:27:23.148Z,48.60
2022-09-26T08:28:55.370Z,48.57
2022-09-26T08:30:29.803Z,45.70
2022-09-26T08:32:04.239Z,47.13
2022-09-26T08:33:38.926Z,44.53
2022-09-26T08:35:14.855Z,45.07
2022-09-26T08:36:54.289Z,46.90
2022-09-26T08:38:27.631Z,44.33
2022-09-26T08:40:00.838Z,42.30
2022-09-26T08:42:23.950Z,43.73
2022-09-26T08:44:28.252Z,41.83
2022-09-26T08:46:51.453Z,40.80
2022-09-26T08:48:58.753Z,41.50
2022-09-26T08:50:52.071Z,39.07
2022-09-26T08:52:58.808Z,36.60
2022-09-26T08:54:41.282Z,34.03
2022-09-26T08:56:47.317Z,29.67
2022-09-26T08:58:42.748Z,31.27
2022-09-26T09:00:25.251Z,29.43
2022-09-26T09:02:05.787Z,28.30
2022-09-26T09:04:03.372Z,28.20
2022-09-26T09:05:54.685Z,27.50
2022-09-26T09:07:27.778Z,27.37
2022-09-26T09:09:00.156Z,26.47
2022-09-26T09:10:40.097Z,26.80
2022-09-26T09:13:08.945Z,26.33
2022-09-26T09:15:23.322Z,27.13
2022-09-26T09:17:37.881Z,26.50
2022-09-26T09:19:36.215Z,25.50
2022-09-26T09:22:05.025Z,23.40
2022-09-26T09:24:16.929Z,22.80
2022-09-26T09:28:36.227Z,24.50
2022-09-26T09:30:26.051Z,24.97
2022-09-26T09:32:04.418Z,25.40
2022-09-26T09:33:38.559Z,23.70
2022-09-26T09:35:19.163Z,24.37
2022-09-26T09:37:12.713Z,24.47
2022-09-26T09:38:49.174Z,23.37
2022-09-26T09:40:28.073Z,23.43
2022-09-26T09:42:36.040Z,26.17
2022-09-26T09:44:46.428Z,24.97
2022-09-26T09:46:34.423Z,25.67
2022-09-26T09:48:12.716Z,23.40
2022-09-26T09:49:49.325Z,22.47
2022-09-26T09:51:52.651Z,25.77
2022-09-26T09:53:53.656Z,24.53
2022-09-26T09:55:41.309Z,23.10
2022-09-26T09:58:10.035Z,24.80
2022-09-26T10:00:10.492Z,23.13
2022-09-26T10:01:54.851Z,25.33
2022-09-26T10:03:49.970Z,25.13
2022-09-26T10:05:49.623Z,24.37
2022-09-26T10:07:22.159Z,23.27
2022-09-26T10:08:54.613Z,23.23
2022-09-26T10:10:58.767Z,23.63
2022-09-26T10:12:35.061Z,23.63
2022-09-26T10:14:16.808Z,23.70
2022-09-26T10:16:01.064Z,19.97
2022-09-26T10:17:33.588Z,21.90
2022-09-26T10:19:08.131Z,21.70
2022-09-26T10:20:52.947Z,21.23
2022-09-26T10:22:44.961Z,21.83
2022-09-26T10:24:34.190Z,21.20
2022-09-26T10:26:11.570Z,19.27
2022-09-26T10:27:53.163Z,17.47
2022-09-26T10:29:38.355Z,17.57
2022-09-26T10:31:12.845Z,15.80
2022-09-26T10:32:56.046Z,25.67
2022-09-26T10:34:35.123Z,15.70
2022-09-26T10:36:20.003Z,16.77
2022-09-26T10:38:01.704Z,16.70
2022-09-26T10:39:58.547Z,20.37
2022-09-26T10:41:39.363Z,17.77
2022-09-26T10:43:32.183Z,20.17
2022-09-26T10:45:29.479Z,29.07
2022-09-26T10:47:08.296Z,18.37
2022-09-26T10:48:57.647Z,17.27
2022-09-26T10:50:30.512Z,17.37
2022-09-26T10:52:40.129Z,16.83
2022-09-26T10:54:18.794Z,16.60
2022-09-26T10:56:01.252Z,15.37
2022-09-26T10:58:07.953Z,15.63
2022-09-26T10:59:44.317Z,17.00
2022-09-26T11:01:28.751Z,16.53
2022-09-26T11:03:01.216Z,14.97
2022-09-26T11:04:53.997Z,14.37
2022-09-26T11:06:34.766Z,16.23
2022-09-26T11:08:10.138Z,16.80
2022-09-26T11:09:43.125Z,17.27
2022-09-26T11:11:17.558Z,17.20
2022-09-26T11:13:16.725Z,14.77
2022-09-26T11:14:53.237Z,15.00
2022-09-26T11:16:26.056Z,15.13
2022-09-26T11:17:58.730Z,14.67
2022-09-26T11:19:54.668Z,14.53
2022-09-26T11:22:05.782Z,17.63
2022-09-26T11:24:23.636Z,16.83
2022-09-26T11:26:16.991Z,13.70
2022-09-26T11:28:01.200Z,13.37
2022-09-26T11:29:58.922Z,14.47
2022-09-26T11:31:44.223Z,12.40
2022-09-26T11:33:19.716Z,12.23
2022-09-26T11:34:54.356Z,12.30
2022-09-26T11:36:55.364Z,12.47
2022-09-26T11:38:56.526Z,12.77
2022-09-26T11:40:40.299Z,13.53
2022-09-26T11:42:43.203Z,14.40
2022-09-26T11:44:49.120Z,48.03
2022-09-26T11:47:01.211Z,23.90
2022-09-26T11:48:58.197Z,15.13
2022-09-26T11:50:56.491Z,13.17
2022-09-26T11:53:14.013Z,11.87
2022-09-26T11:55:31.086Z,13.37
2022-09-26T11:57:45.187Z,13.17
2022-09-26T11:59:48.598Z,16.20
2022-09-26T12:01:28.087Z,19.03
2022-09-26T12:03:33.492Z,13.50
2022-09-26T12:05:29.716Z,12.47
2022-09-26T12:07:19.875Z,11.87
2022-09-26T12:09:10.470Z,12.50
2022-09-26T12:10:50.389Z,10.87
2022-09-26T12:12:41.871Z,13.03
2022-09-26T12:14:29.252Z,15.43
2022-09-26T12:16:23.145Z,13.07
2022-09-26T12:18:22.050Z,12.17
2022-09-26T12:20:03.663Z,10.97
2022-09-26T12:22:04.583Z,11.37
2022-09-26T12:24:18.691Z,9.90
2022-09-26T12:26:09.495Z,10.67
2022-09-26T12:28:31.842Z,11.17
2022-09-26T12:30:15.725Z,10.80
2022-09-26T12:32:04.038Z,10.83
2022-09-26T12:34:15.730Z,10.47
2022-09-26T12:36:09.481Z,12.97
2022-09-26T12:38:13.940Z,11.40
2022-09-26T12:40:32.064Z,10.97
2022-09-26T12:43:02.280Z,10.07
2022-09-26T12:45:03.285Z,10.60
2022-09-26T12:46:48.997Z,11.70
2022-09-26T12:48:45.296Z,12.10
2022-09-26T12:50:36.338Z,10.67
2022-09-26T12:52:42.289Z,18.73
2022-09-26T12:54:51.835Z,13.20
2022-09-26T12:57:11.362Z,16.57
2022-09-26T12:59:01.948Z,14.17
2022-09-26T13:00:51.383Z,14.83
2022-09-26T13:02:38.994Z,13.30
2022-09-26T13:04:38.250Z,13.37
2022-09-26T13:07:07.667Z,12.20
2022-09-26T13:09:08.321Z,12.03
2022-09-26T13:10:58.194Z,11.77
2022-09-26T13:13:15.897Z,11.87
2022-09-26T13:15:10.859Z,13.43
2022-09-26T13:16:54.803Z,13.90
2022-09-26T13:18:39.818Z,15.07
2022-09-26T13:20:34.428Z,13.03
2022-09-26T13:22:27.494Z,14.77
2022-09-26T13:24:13.868Z,14.87
2022-09-26T13:26:06.329Z,14.80
2022-09-26T13:27:47.075Z,16.10
2022-09-26T13:29:37.485Z,17.70
2022-09-26T13:31:46.457Z,19.93
2022-09-26T13:33:28.176Z,20.40
2022-09-26T13:35:19.527Z,17.80
2022-09-26T13:36:52.908Z,15.17
2022-09-26T13:38:45.085Z,15.17
2022-09-26T13:40:47.795Z,15.80
2022-09-26T13:42:43.731Z,14.57
2022-09-26T13:45:02.897Z,21.33
2022-09-26T13:47:06.218Z,19.07
2022-09-26T13:49:00.929Z,24.73
2022-09-26T13:50:47.794Z,19.50
2022-09-26T13:52:35.450Z,18.17
2022-09-26T13:54:16.880Z,17.73
2022-09-26T13:56:34.915Z,16.20
2022-09-26T13:58:21.925Z,16.73
2022-09-26T13:59:54.443Z,17.20
2022-09-26T14:01:28.057Z,16.53
2022-09-26T14:03:19.196Z,17.67
2022-09-26T14:05:01.772Z,16.27
2022-09-26T14:06:34.761Z,13.70
2022-09-26T14:08:47.476Z,13.70
2022-09-26T14:10:39.193Z,15.30
2022-09-26T14:12:31.857Z,17.90
2022-09-26T14:14:19.171Z,17.27
2022-09-26T14:16:04.934Z,17.33
2022-09-26T14:17:43.737Z,18.73
2022-09-26T14:19:46.691Z,18.57
2022-09-26T14:21:33.844Z,20.13
2022-09-26T14:23:40.053Z,20.00
2022-09-26T14:25:53.740Z,19.40
2022-09-26T14:27:43.716Z,18.37
2022-09-26T14:29:39.919Z,17.23
2022-09-26T14:31:27.078Z,17.77
2022-09-26T14:33:04.949Z,19.10
2022-09-26T14:34:46.815Z,22.10
2022-09-26T14:36:35.235Z,20.13
2022-09-26T14:38:20.122Z,21.33
2022-09-26T14:40:00.606Z,20.77
2022-09-26T14:41:36.191Z,21.07
2022-09-26T14:43:35.538Z,21.50
2022-09-26T14:45:26.325Z,23.20
2022-09-26T14:46:58.723Z,23.03
2022-09-26T14:48:41.397Z,25.13
2022-09-26T14:50:25.223Z,21.07
2022-09-26T14:52:07.530Z,19.70
2022-09-26T14:53:55.017Z,20.00
2022-09-26T14:55:31.329Z,18.10
2022-09-26T14:57:08.111Z,22.43
2022-09-26T14:58:48.817Z,22.43
2022-09-26T15:00:45.476Z,21.43
2022-09-26T15:02:24.458Z,19.37
2022-09-26T15:04:10.696Z,19.53
2022-09-26T15:05:45.332Z,19.30
2022-09-26T15:07:27.223Z,17.13
2022-09-26T15:09:09.560Z,16.80
2022-09-26T15:10:42.644Z,17.97
2022-09-26T15:12:39.188Z,18.73
2022-09-26T15:14:37.639Z,16.83
2022-09-26T15:16:24.107Z,17.53
2022-09-26T15:18:28.190Z,19.23
2022-09-26T15:20:07.367Z,18.13
2022-09-26T15:21:45.604Z,18.23
2022-09-26T15:23:32.696Z,17.27
2022-09-26T15:25:32.999Z,17.00
2022-09-26T15:27:29.187Z,17.40
2022-09-26T15:29:04.541Z,17.60
2022-09-26T15:30:39.241Z,18.03
2022-09-26T15:32:21.263Z,18.20
2022-09-26T15:34:09.676Z,17.17
2022-09-26T15:35:52.491Z,18.33
2022-09-26T15:37:36.286Z,17.67
2022-09-26T15:39:38.476Z,17.93
2022-09-26T15:41:37.565Z,18.57
2022-09-26T15:43:09.783Z,17.47
2022-09-26T15:44:58.483Z,18.03
2022-09-26T15:46:32.566Z,18.60
2022-09-26T15:48:20.052Z,17.90
2022-09-26T15:50:12.942Z,18.83
2022-09-26T15:51:47.388Z,18.10
2022-09-26T15:53:39.564Z,18.27
2022-09-26T15:55:28.339Z,18.93
2022-09-26T15:57:04.132Z,18.77
2022-09-26T15:58:48.396Z,19.10
2022-09-26T16:00:21.045Z,20.67
2022-09-26T16:01:55.150Z,24.03
2022-09-26T16:03:47.895Z,23.03
2022-09-26T16:05:22.849Z,27.37
2022-09-26T16:07:00.195Z,30.70
2022-09-26T16:08:40.292Z,35.83
2022-09-26T16:10:30.045Z,35.73
2022-09-26T16:12:16.024Z,35.70
2022-09-26T16:13:51.912Z,39.50
2022-09-26T16:15:30.654Z,39.47
2022-09-26T16:17:28.218Z,30.17
2022-09-26T16:19:04.138Z,38.93
2022-09-26T16:20:36.441Z,37.03
2022-09-26T16:23:05.544Z,33.00
2022-09-26T16:24:39.144Z,30.30
2022-09-26T16:26:40.801Z,31.33
2022-09-26T16:28:13.445Z,31.20
2022-09-26T16:29:52.218Z,32.33
2022-09-26T16:31:27.149Z,34.53
2022-09-26T16:33:02.723Z,36.60
2022-09-26T16:34:35.300Z,35.77
2022-09-26T16:36:43.075Z,39.07
2022-09-26T16:38:34.750Z,40.23
2022-09-26T16:40:18.350Z,43.93
2022-09-26T16:42:03.262Z,44.83
2022-09-26T16:43:39.067Z,45.27
2022-09-26T16:45:14.791Z,49.87
2022-09-26T16:46:54.763Z,50.60
2022-09-26T16:48:41.476Z,49.30
2022-09-26T16:50:26.629Z,51.87
2022-09-26T16:52:32.809Z,50.70
2022-09-26T16:54:08.098Z,52.20
2022-09-26T16:55:40.623Z,45.57
2022-09-26T16:57:32.327Z,50.80
2022-09-26T16:59:15.187Z,56.77
2022-09-26T17:01:23.025Z,56.37
2022-09-26T17:02:55.592Z,48.80
2022-09-26T17:04:37.025Z,44.50
2022-09-26T17:06:10.172Z,43.80
2022-09-26T17:07:42.819Z,40.53
2022-09-26T17:09:30.670Z,36.17
2022-09-26T17:11:10.588Z,36.60
2022-09-26T17:12:42.967Z,36.40
2022-09-26T17:14:40.095Z,36.33
2022-09-26T17:16:13.085Z,37.73
2022-09-26T17:17:47.395Z,39.33
2022-09-26T17:19:23.376Z,41.80
2022-09-26T17:20:58.986Z,45.20
2022-09-26T17:22:31.623Z,48.37
2022-09-26T17:24:04.351Z,47.57
2022-09-26T17:25:37.161Z,47.03
2022-09-26T17:27:17.716Z,47.20
2022-09-26T17:28:53.426Z,51.13
2022-09-26T17:30:25.906Z,58.17
2022-09-26T17:32:00.946Z,65.17
2022-09-26T17:33:40.455Z,83.70
2022-09-26T17:35:29.789Z,79.83
2022-09-26T17:37:03.160Z,58.13
2022-09-26T17:38:38.742Z,54.83
2022-09-26T17:40:24.175Z,56.60
2022-09-26T17:42:01.740Z,46.20
2022-09-26T17:43:35.278Z,44.70
2022-09-26T17:45:08.453Z,51.03
2022-09-26T17:46:42.364Z,45.30
2022-09-26T17:48:26.354Z,47.67
2022-09-26T17:49:59.359Z,51.03
2022-09-26T17:51:32.332Z,53.80
2022-09-26T17:53:09.285Z,51.03
2022-09-26T17:54:42.930Z,43.77
2022-09-26T17:56:15.440Z,46.27
2022-09-26T17:57:47.671Z,47.53
2022-09-26T17:59:26.594Z,54.50
2022-09-26T18:01:02.517Z,59.37
2022-09-26T18:02:51.840Z,54.33
2022-09-26T18:04:27.390Z,55.93
2022-09-26T18:06:01.221Z,52.57
2022-09-26T18:07:39.800Z,61.03
2022-09-26T18:09:16.682Z,60.30
2022-09-26T18:10:56.778Z,59.50
2022-09-26T18:12:29.164Z,58.80
2022-09-26T18:14:06.824Z,63.17
2022-09-26T18:15:41.140Z,63.70
2022-09-26T18:17:18.576Z,57.63
2022-09-26T18:18:51.749Z,58.87
2022-09-26T18:20:37.672Z,54.63
2022-09-26T18:22:25.725Z,57.67
2022-09-26T18:24:06.524Z,53.20
2022-09-26T18:25:39.685Z,51.23
2022-09-26T18:27:14.980Z,50.57
2022-09-26T18:28:47.228Z,51.00
2022-09-26T18:30:21.926Z,56.27
2022-09-26T18:31:54.664Z,59.17
2022-09-26T18:33:29.172Z,61.43
2022-09-26T18:35:01.560Z,54.70
2022-09-26T18:36:34.725Z,53.10
2022-09-26T18:38:07.252Z,49.70
2022-09-26T18:39:39.768Z,50.50
2022-09-26T18:42:46.378Z,51.20
2022-09-26T18:44:18.853Z,49.10
2022-09-26T18:49:00.091Z,47.75
2022-09-26T18:50:37.115Z,48.15
2022-09-26T18:52:17.733Z,47.20
2022-09-26T18:53:50.155Z,47.85
2022-09-26T18:55:45.935Z,46.45
2022-09-26T18:57:36.981Z,47.95
2022-09-26T18:59:10.300Z,47.15
2022-09-26T19:00:43.331Z,47.20
2022-09-26T19:02:26.707Z,46.50
2022-09-26T19:04:04.028Z,50.15
2022-09-26T19:05:38.756Z,45.40
2022-09-26T19:07:15.145Z,48.00
2022-09-26T19:09:12.973Z,45.00
2022-09-26T19:10:45.755Z,46.55
2022-09-26T19:12:18.416Z,50.40
2022-09-26T19:13:54.631Z,52.40
2022-09-26T19:15:28.876Z,50.40
2022-09-26T19:18:34.719Z,48.70
2022-09-26T19:20:07.472Z,47.80
2022-09-26T19:21:51.903Z,43.00
2022-09-26T19:23:31.220Z,47.93
2022-09-26T19:25:03.905Z,42.15
2022-09-26T19:26:43.216Z,46.90
2022-09-26T19:28:24.373Z,59.90
2022-09-26T19:30:06.760Z,48.05
2022-09-26T19:31:43.658Z,44.17
2022-09-26T19:33:16.205Z,42.65
2022-09-26T19:35:00.640Z,51.75
2022-09-26T19:36:32.995Z,50.70
2022-09-26T19:38:21.925Z,54.00
2022-09-26T19:39:54.512Z,58.30
2022-09-26T19:41:26.911Z,67.60
2022-09-26T19:42:59.165Z,53.40
2022-09-26T19:44:31.400Z,53.75
2022-09-26T19:46:07.416Z,46.50
2022-09-26T19:47:47.129Z,45.30
2022-09-26T19:49:19.869Z,44.95
2022-09-26T19:50:52.628Z,43.40
2022-09-26T19:52:25.224Z,45.70
2022-09-26T19:53:59.109Z,49.70
2022-09-26T19:55:32.825Z,46.80
2022-09-26T19:57:14.578Z,43.85
2022-09-26T19:58:48.601Z,45.20
2022-09-26T20:00:21.107Z,45.70
2022-09-26T20:01:53.704Z,46.43
2022-09-26T20:03:32.275Z,47.50
2022-09-26T20:05:21.334Z,48.70
2022-09-26T20:06:53.790Z,42.70
2022-09-26T20:10:01.613Z,44.10
2022-09-26T20:11:34.313Z,46.40
2022-09-26T20:14:38.989Z,47.70
2022-09-26T20:16:12.596Z,54.60
2022-09-26T20:19:41.935Z,44.80
2022-09-26T20:21:15.920Z,45.30
2022-09-26T20:22:51.209Z,45.97
2022-09-26T20:24:23.827Z,46.60
2022-09-26T20:25:56.657Z,47.63
2022-09-26T20:27:30.170Z,44.50
2022-09-26T20:29:02.733Z,43.43
2022-09-26T20:30:54.141Z,40.70
2022-09-26T20:32:26.597Z,46.90
2022-09-26T20:34:00.131Z,44.10
2022-09-26T20:35:37.442Z,43.53
2022-09-26T20:37:13.467Z,44.23
2022-09-26T20:38:50.983Z,45.40
2022-09-26T20:40:24.219Z,47.27
2022-09-26T20:41:57.150Z,43.80
2022-09-26T20:43:35.467Z,45.63
2022-09-26T20:45:18.073Z,45.73
2022-09-26T20:46:56.360Z,44.53
2022-09-26T20:48:29.719Z,47.23
2022-09-26T20:50:02.451Z,48.00
2022-09-26T20:51:35.264Z,49.63
2022-09-26T20:53:18.816Z,49.03
2022-09-26T20:54:52.778Z,48.80
2022-09-26T20:56:25.164Z,50.83
2022-09-26T20:57:57.435Z,48.33
2022-09-26T20:59:29.823Z,50.80
2022-09-26T21:01:02.371Z,53.53
2022-09-26T21:02:39.772Z,54.97
2022-09-26T21:04:18.851Z,49.93
2022-09-26T21:05:51.542Z,53.60
2022-09-26T21:07:24.739Z,56.17
2022-09-26T21:08:57.488Z,51.93
2022-09-26T21:10:33.064Z,52.90
2022-09-26T21:12:16.720Z,57.57
2022-09-26T21:13:49.572Z,57.20
2022-09-26T21:15:24.826Z,55.27
2022-09-26T21:16:57.241Z,55.53
2022-09-26T21:18:30.250Z,59.83
2022-09-26T21:20:03.359Z,58.30
2022-09-26T21:21:35.784Z,60.90
2022-09-26T21:23:10.935Z,58.60
2022-09-26T21:24:49.076Z,60.37
2022-09-26T21:26:28.627Z,64.20
2022-09-26T21:28:11.495Z,61.30
2022-09-26T21:29:43.757Z,61.03
2022-09-26T21:31:46.673Z,60.00
2022-09-26T21:33:21.822Z,64.77
2022-09-26T21:35:04.400Z,64.80
2022-09-26T21:36:40.548Z,66.07
2022-09-26T21:38:12.980Z,64.87
2022-09-26T21:39:46.671Z,68.97
2022-09-26T21:41:19.493Z,74.93
2022-09-26T21:42:59.702Z,75.17
2022-09-26T21:44:51.499Z,71.97
2022-09-26T21:46:25.347Z,76.57
2022-09-26T21:47:57.940Z,80.13
2022-09-26T21:49:30.866Z,66.60
2022-09-26T21:51:04.264Z,78.73
2022-09-26T21:52:49.995Z,73.40
2022-09-26T21:54:32.457Z,70.80
2022-09-26T21:56:14.690Z,72.83
2022-09-26T21:57:50.592Z,91.20
2022-09-26T21:59:25.022Z,77.47
2022-09-26T22:00:58.363Z,70.33
2022-09-26T22:02:30.861Z,69.07
2022-09-26T22:04:03.499Z,65.33
2022-09-26T22:05:35.750Z,64.00
2022-09-26T22:07:08.156Z,65.30